createdAt,value
2017-06-02T00:01:35.620Z,0
2017-06-02T00:02:16.086Z,0
2017-06-02T00:02:56.496Z,0
2017-06-02T00:03:36.941Z,0
2017-06-02T00:04:17.383Z,0
2017-06-02T00:04:57.793Z,0
2017-06-02T00:05:38.194Z,0
2017-06-02T00:06:18.653Z,0
2017-06-02T00:06:59.039Z,0
2017-06-02T00:07:39.470Z,0
2017-06-02T00:08:19.831Z,0
2017-06-02T00:09:00.237Z,0
2017-06-02T00:09:40.646Z,0
2017-06-02T00:10:21.077Z,0
2017-06-02T00:11:01.480Z,0
2017-06-02T00:11:41.929Z,0
2017-06-02T00:12:22.379Z,0
2017-06-02T00:13:02.751Z,0
2017-06-02T00:13:43.189Z,0
2017-06-02T00:14:23.620Z,0
2017-06-02T00:15:04.047Z,0
2017-06-02T00:15:44.490Z,0
2017-06-02T00:16:24.904Z,0
2017-06-02T00:17:05.337Z,0
2017-06-02T00:17:45.713Z,0
2017-06-02T00:18:26.159Z,0
2017-06-02T00:19:06.584Z,0
2017-06-02T00:19:47.033Z,0
2017-06-02T00:22:20.103Z,0
2017-06-02T00:23:00.506Z,0
2017-06-02T00:23:40.937Z,0
2017-06-02T00:24:21.340Z,0
2017-06-02T00:25:01.759Z,0
2017-06-02T00:25:42.188Z,0
2017-06-02T00:26:22.617Z,0
2017-06-02T00:29:00.728Z,0
2017-06-02T00:29:41.075Z,0
2017-06-02T00:30:21.507Z,0
2017-06-02T00:31:01.904Z,0
2017-06-02T00:31:42.315Z,0
2017-06-02T00:32:22.761Z,0
2017-06-02T00:33:03.198Z,0
2017-06-02T00:33:43.607Z,0
2017-06-02T00:36:16.906Z,0
2017-06-02T00:36:57.340Z,0
2017-06-02T00:37:37.745Z,0
2017-06-02T00:38:18.182Z,0
2017-06-02T00:38:58.579Z,0
2017-06-02T00:39:38.982Z,0
2017-06-02T00:40:19.381Z,0
2017-06-02T00:40:59.803Z,0
2017-06-02T00:41:40.223Z,0
2017-06-02T00:42:20.654Z,0
2017-06-02T00:43:01.031Z,0
2017-06-02T00:43:41.444Z,0
2017-06-02T00:44:21.813Z,0
2017-06-02T00:45:02.240Z,0
2017-06-02T00:45:42.701Z,0
2017-06-02T00:46:23.078Z,0
2017-06-02T00:47:03.485Z,0
2017-06-02T00:47:43.953Z,0
2017-06-02T00:48:24.394Z,0
2017-06-02T00:49:04.834Z,0
2017-06-02T00:49:45.199Z,0
2017-06-02T00:50:25.635Z,0
2017-06-02T00:51:06.042Z,0
2017-06-02T00:51:46.433Z,0
2017-06-02T00:52:26.839Z,0
2017-06-02T00:53:07.267Z,0
2017-06-02T00:53:47.688Z,0
2017-06-02T00:54:28.109Z,0
2017-06-02T00:55:08.522Z,0
2017-06-02T00:55:48.942Z,0
2017-06-02T00:56:29.357Z,0
2017-06-02T00:57:09.806Z,0
2017-06-02T00:57:50.265Z,0
2017-06-02T00:58:30.661Z,0
2017-06-02T00:59:11.078Z,0
2017-06-02T00:59:51.484Z,0
2017-06-02T01:00:31.873Z,0
2017-06-02T01:01:12.294Z,0
2017-06-02T01:01:52.699Z,0
2017-06-02T01:02:33.126Z,0
2017-06-02T01:03:13.564Z,0
2017-06-02T01:03:53.990Z,0
2017-06-02T01:04:34.424Z,0
2017-06-02T01:05:14.836Z,0
2017-06-02T01:05:55.231Z,0
2017-06-02T01:06:35.669Z,0
2017-06-02T01:07:16.115Z,0
2017-06-02T01:07:56.499Z,0
2017-06-02T01:08:36.916Z,0
2017-06-02T01:09:17.359Z,0
2017-06-02T01:09:57.748Z,0
2017-06-02T01:10:38.219Z,0
2017-06-02T01:11:18.630Z,0
2017-06-02T01:11:59.033Z,0
2017-06-02T01:12:39.438Z,0
2017-06-02T01:13:19.874Z,0
2017-06-02T01:14:00.238Z,0
2017-06-02T01:14:40.714Z,0
2017-06-02T01:15:21.134Z,0
2017-06-02T01:16:01.510Z,0
2017-06-02T01:16:41.944Z,0
2017-06-02T01:17:22.333Z,0
2017-06-02T01:18:02.743Z,0
2017-06-02T01:18:43.140Z,0
2017-06-02T01:19:23.563Z,0
2017-06-02T01:20:03.932Z,0
2017-06-02T01:20:44.380Z,0
2017-06-02T01:21:24.738Z,0
2017-06-02T01:22:05.143Z,0
2017-06-02T01:22:45.596Z,0
2017-06-02T01:23:26.395Z,0
2017-06-02T01:24:06.821Z,0
2017-06-02T01:24:47.234Z,0
2017-06-02T01:25:27.635Z,0
2017-06-02T01:26:08.005Z,0
2017-06-02T01:26:48.407Z,0
2017-06-02T01:27:28.841Z,0
2017-06-02T01:28:09.217Z,0
2017-06-02T01:28:49.604Z,0
2017-06-02T01:29:30.018Z,0
2017-06-02T01:30:10.377Z,0
2017-06-02T01:30:50.815Z,0
2017-06-02T01:31:31.244Z,0
2017-06-02T01:32:11.647Z,0
2017-06-02T01:32:52.101Z,0
2017-06-02T01:33:32.526Z,0
2017-06-02T01:34:12.914Z,0
2017-06-02T01:34:53.327Z,0
2017-06-02T01:35:33.760Z,0
2017-06-02T01:36:14.169Z,0
2017-06-02T01:36:54.544Z,0
2017-06-02T01:37:34.956Z,0
2017-06-02T01:38:15.346Z,0
2017-06-02T01:38:55.825Z,0
2017-06-02T01:39:36.224Z,0
2017-06-02T01:40:16.596Z,0
2017-06-02T01:40:56.995Z,0
2017-06-02T01:41:37.441Z,0
2017-06-02T01:42:17.834Z,0
2017-06-02T01:42:58.257Z,0
2017-06-02T01:43:38.654Z,0
2017-06-02T01:44:19.061Z,0
2017-06-02T01:44:59.495Z,0
2017-06-02T01:45:39.910Z,0
2017-06-02T01:46:20.298Z,0
2017-06-02T01:47:00.715Z,0
2017-06-02T01:47:41.163Z,0
2017-06-02T01:48:21.556Z,0
2017-06-02T01:49:01.983Z,0
2017-06-02T01:49:42.358Z,0
2017-06-02T01:50:22.763Z,0
2017-06-02T01:51:03.202Z,0
2017-06-02T01:51:43.569Z,0
2017-06-02T01:52:23.929Z,0
2017-06-02T01:53:04.375Z,0
2017-06-02T01:53:44.788Z,0
2017-06-02T01:54:25.220Z,0
2017-06-02T01:55:05.605Z,0
2017-06-02T01:55:46.004Z,0
2017-06-02T01:56:26.443Z,0
2017-06-02T01:57:06.843Z,0
2017-06-02T01:57:47.245Z,0
2017-06-02T01:58:27.666Z,0
2017-06-02T01:59:08.057Z,0
2017-06-02T01:59:48.497Z,0
2017-06-02T02:00:28.902Z,0
2017-06-02T02:01:09.336Z,0
2017-06-02T02:01:49.740Z,0
2017-06-02T02:02:30.125Z,0
2017-06-02T02:03:10.584Z,0
2017-06-02T02:03:50.997Z,0
2017-06-02T02:04:31.375Z,0
2017-06-02T02:05:11.770Z,0
2017-06-02T02:05:52.229Z,0
2017-06-02T02:06:32.651Z,0
2017-06-02T02:07:13.089Z,0
2017-06-02T02:07:53.511Z,0
2017-06-02T02:08:33.891Z,0
2017-06-02T02:09:14.349Z,0
2017-06-02T02:09:54.726Z,0
2017-06-02T02:10:35.135Z,0
2017-06-02T02:11:15.552Z,0
2017-06-02T02:11:55.977Z,0
2017-06-02T02:12:36.364Z,0
2017-06-02T02:13:16.787Z,0
2017-06-02T02:13:57.227Z,0
2017-06-02T02:14:37.572Z,0
2017-06-02T02:15:18.000Z,0
2017-06-02T02:15:58.409Z,0
2017-06-02T02:16:38.823Z,0
2017-06-02T02:17:19.204Z,0
2017-06-02T02:17:59.632Z,0
2017-06-02T02:18:40.065Z,0
2017-06-02T02:19:20.482Z,0
2017-06-02T02:20:00.933Z,0
2017-06-02T02:20:41.315Z,0
2017-06-02T02:21:21.728Z,0
2017-06-02T02:22:02.132Z,0
2017-06-02T02:22:42.516Z,0
2017-06-02T02:23:22.919Z,0
2017-06-02T02:24:03.389Z,0
2017-06-02T02:24:43.839Z,0
2017-06-02T02:25:24.268Z,0
2017-06-02T02:26:04.684Z,0
2017-06-02T02:26:45.196Z,0
2017-06-02T02:27:25.593Z,0
2017-06-02T02:28:06.045Z,0
2017-06-02T02:28:46.437Z,0
2017-06-02T02:29:26.854Z,0
2017-06-02T02:30:07.270Z,0
2017-06-02T02:30:47.661Z,0
2017-06-02T02:31:28.084Z,0
2017-06-02T02:32:08.525Z,0
2017-06-02T02:32:48.971Z,0
2017-06-02T02:33:29.354Z,0
2017-06-02T02:34:09.764Z,0
2017-06-02T02:34:50.145Z,0
2017-06-02T02:35:30.560Z,0
2017-06-02T02:36:11.103Z,0
2017-06-02T02:36:51.541Z,0
2017-06-02T02:37:31.965Z,0
2017-06-02T02:38:12.337Z,0
2017-06-02T02:38:52.754Z,0
2017-06-02T02:39:33.145Z,0
2017-06-02T02:40:13.590Z,0
2017-06-02T02:40:53.963Z,0
2017-06-02T02:41:34.378Z,0
2017-06-02T02:42:14.764Z,0
2017-06-02T02:42:55.189Z,0
2017-06-02T02:43:35.595Z,0
2017-06-02T02:44:16.011Z,0
2017-06-02T02:44:56.383Z,0
2017-06-02T02:45:36.817Z,0
2017-06-02T02:46:17.201Z,0
2017-06-02T02:46:57.583Z,0
2017-06-02T02:47:37.996Z,0
2017-06-02T02:48:18.411Z,0
2017-06-02T02:48:58.777Z,0
2017-06-02T02:49:39.210Z,0
2017-06-02T02:50:19.635Z,0
2017-06-02T02:51:00.045Z,0
2017-06-02T02:51:40.439Z,0
2017-06-02T02:52:20.837Z,0
2017-06-02T02:53:01.236Z,0
2017-06-02T02:53:41.649Z,0
2017-06-02T02:54:22.034Z,0
2017-06-02T02:55:02.429Z,0
2017-06-02T02:55:42.858Z,0
2017-06-02T02:56:23.260Z,0
2017-06-02T02:57:03.687Z,0
2017-06-02T02:57:44.084Z,0
2017-06-02T02:58:24.487Z,0
2017-06-02T02:59:04.924Z,0
2017-06-02T02:59:45.317Z,0
2017-06-02T03:00:25.748Z,0
2017-06-02T03:01:06.261Z,0
2017-06-02T03:01:46.629Z,0
2017-06-02T03:02:27.051Z,0
2017-06-02T03:03:07.498Z,0
2017-06-02T03:03:47.884Z,0
2017-06-02T03:04:28.566Z,0
2017-06-02T03:05:08.944Z,0
2017-06-02T03:05:49.396Z,0
2017-06-02T03:06:29.785Z,0
2017-06-02T03:07:10.208Z,0
2017-06-02T03:07:50.583Z,0
2017-06-02T03:08:31.023Z,0
2017-06-02T03:09:11.432Z,0
2017-06-02T03:09:51.830Z,0
2017-06-02T03:10:32.228Z,0
2017-06-02T03:13:00.302Z,5
2017-06-02T03:13:40.731Z,5
2017-06-02T03:14:21.176Z,5
2017-06-02T03:15:01.575Z,5
2017-06-02T03:15:42.018Z,5
2017-06-02T03:16:22.375Z,5
2017-06-02T03:17:02.783Z,5
2017-06-02T03:17:43.195Z,5
2017-06-02T03:18:23.611Z,5
2017-06-02T03:19:03.986Z,5
2017-06-02T03:19:44.383Z,5
2017-06-02T03:20:24.805Z,5
2017-06-02T03:21:05.210Z,10
2017-06-02T03:21:45.667Z,10
2017-06-02T03:22:26.045Z,10
2017-06-02T03:23:06.443Z,10
2017-06-02T03:23:46.836Z,10
2017-06-02T03:24:27.209Z,10
2017-06-02T03:25:07.710Z,10
2017-06-02T03:25:48.095Z,10
2017-06-02T03:26:28.522Z,10
2017-06-02T03:27:08.917Z,15
2017-06-02T03:27:49.341Z,15
2017-06-02T03:28:29.797Z,15
2017-06-02T03:29:10.166Z,15
2017-06-02T03:31:28.125Z,20
2017-06-02T03:32:08.597Z,20
2017-06-02T03:32:49.002Z,20
2017-06-02T03:33:29.387Z,20
2017-06-02T03:34:09.827Z,20
2017-06-02T03:34:50.243Z,20
2017-06-02T03:35:30.634Z,25
2017-06-02T03:36:11.160Z,25
2017-06-02T03:36:51.590Z,25
2017-06-02T03:37:31.994Z,25
2017-06-02T03:38:12.408Z,25
2017-06-02T03:38:52.802Z,30
2017-06-02T03:39:33.257Z,30
2017-06-02T03:40:13.636Z,30
2017-06-02T03:40:54.112Z,30
2017-06-02T03:41:34.515Z,30
2017-06-02T03:42:14.940Z,35
2017-06-02T03:42:55.354Z,35
2017-06-02T03:43:36.427Z,35
2017-06-02T03:44:16.840Z,35
2017-06-02T03:44:57.248Z,35
2017-06-02T03:45:37.649Z,40
2017-06-02T03:46:18.099Z,40
2017-06-02T03:46:58.511Z,40
2017-06-02T03:47:38.909Z,40
2017-06-02T03:48:19.337Z,40
2017-06-02T03:48:59.749Z,45
2017-06-02T03:49:40.126Z,45
2017-06-02T03:50:20.547Z,45
2017-06-02T03:51:01.015Z,45
2017-06-02T03:51:41.503Z,45
2017-06-02T03:52:21.883Z,45
2017-06-02T03:53:02.314Z,50
2017-06-02T03:53:42.761Z,50
2017-06-02T03:54:23.678Z,50
2017-06-02T03:55:04.084Z,55
2017-06-02T03:55:44.611Z,55
2017-06-02T03:56:25.610Z,55
2017-06-02T03:57:06.397Z,55
2017-06-02T03:57:46.753Z,55
2017-06-02T03:58:27.161Z,60
2017-06-02T03:59:08.380Z,60
2017-06-02T03:59:48.803Z,60
2017-06-02T04:00:29.213Z,60
2017-06-02T04:01:10.232Z,65
2017-06-02T04:01:50.662Z,65
2017-06-02T04:02:31.068Z,65
2017-06-02T04:03:11.523Z,65
2017-06-02T04:03:51.963Z,65
2017-06-02T04:04:32.372Z,70
2017-06-02T04:05:12.784Z,70
2017-06-02T04:05:53.191Z,70
2017-06-02T04:06:33.579Z,70
2017-06-02T04:07:14.040Z,75
2017-06-02T04:07:56.110Z,75
2017-06-02T04:08:36.543Z,75
2017-06-02T04:09:16.992Z,75
2017-06-02T04:09:57.448Z,80
2017-06-02T04:10:37.839Z,80
2017-06-02T04:11:18.237Z,80
2017-06-02T04:11:58.685Z,85
2017-06-02T04:12:39.110Z,85
2017-06-02T04:13:19.481Z,85
2017-06-02T04:13:59.924Z,85
2017-06-02T04:14:40.320Z,90
2017-06-02T04:15:21.686Z,90
2017-06-02T04:16:02.053Z,90
2017-06-02T04:16:42.481Z,95
2017-06-02T04:17:22.876Z,95
2017-06-02T04:18:03.245Z,95
2017-06-02T04:18:43.708Z,100
2017-06-02T04:19:24.154Z,100
2017-06-02T04:20:04.606Z,100
2017-06-02T04:20:45.837Z,105
2017-06-02T04:21:26.125Z,105
2017-06-02T04:22:06.553Z,105
2017-06-02T04:22:46.978Z,110
2017-06-02T04:23:27.380Z,110
2017-06-02T04:24:07.824Z,115
2017-06-02T04:24:48.217Z,115
2017-06-02T04:25:28.602Z,115
2017-06-02T04:26:09.065Z,120
2017-06-02T04:26:49.519Z,120
2017-06-02T04:27:29.981Z,120
2017-06-02T04:28:10.379Z,125
2017-06-02T04:28:50.878Z,120
2017-06-02T04:29:31.343Z,120
2017-06-02T04:30:11.817Z,125
2017-06-02T04:30:52.248Z,125
2017-06-02T04:31:32.698Z,130
2017-06-02T04:32:13.705Z,130
2017-06-02T04:32:54.136Z,130
2017-06-02T04:33:34.575Z,135
2017-06-02T04:34:15.595Z,135
2017-06-02T04:34:56.038Z,135
2017-06-02T04:35:36.478Z,140
2017-06-02T04:36:16.879Z,140
2017-06-02T04:36:58.262Z,140
2017-06-02T04:37:38.691Z,145
2017-06-02T04:38:19.066Z,145
2017-06-02T04:38:59.491Z,145
2017-06-02T04:39:39.936Z,145
2017-06-02T04:40:21.199Z,150
2017-06-02T04:41:01.610Z,150
2017-06-02T04:41:42.082Z,150
2017-06-02T04:42:23.282Z,155
2017-06-02T04:43:03.640Z,155
2017-06-02T04:43:44.113Z,160
2017-06-02T04:44:25.177Z,160
2017-06-02T04:45:05.535Z,160
2017-06-02T04:45:46.120Z,165
2017-06-02T04:46:26.563Z,165
2017-06-02T04:47:06.938Z,170
2017-06-02T04:47:47.319Z,170
2017-06-02T04:48:27.783Z,170
2017-06-02T04:49:08.201Z,175
2017-06-02T04:49:48.620Z,175
2017-06-02T04:50:29.036Z,175
2017-06-02T04:51:09.474Z,180
2017-06-02T04:51:49.920Z,180
2017-06-02T04:52:30.308Z,180
2017-06-02T04:53:10.766Z,185
2017-06-02T04:53:51.189Z,185
2017-06-02T04:54:31.541Z,190
2017-06-02T04:55:11.964Z,190
2017-06-02T04:55:52.377Z,190
2017-06-02T04:56:32.854Z,195
2017-06-02T04:57:13.255Z,195
2017-06-02T04:57:53.658Z,200
2017-06-02T04:58:34.070Z,200
2017-06-02T04:59:14.548Z,200
2017-06-02T04:59:54.954Z,205
2017-06-02T05:00:35.400Z,205
2017-06-02T05:01:15.784Z,210
2017-06-02T05:01:56.374Z,210
2017-06-02T05:02:36.824Z,215
2017-06-02T05:03:17.181Z,215
2017-06-02T05:03:57.644Z,215
2017-06-02T05:04:38.001Z,215
2017-06-02T05:05:18.438Z,220
2017-06-02T05:05:58.823Z,220
2017-06-02T05:06:39.282Z,220
2017-06-02T05:07:19.667Z,225
2017-06-02T05:08:01.028Z,225
2017-06-02T05:08:41.434Z,230
2017-06-02T05:09:21.827Z,230
2017-06-02T05:10:02.255Z,240
2017-06-02T05:10:42.693Z,235
2017-06-02T05:11:23.085Z,235
2017-06-02T05:12:03.516Z,240
2017-06-02T05:12:43.965Z,240
2017-06-02T05:13:24.353Z,245
2017-06-02T05:14:04.863Z,245
2017-06-02T05:14:45.229Z,250
2017-06-02T05:15:25.637Z,250
2017-06-02T05:16:06.150Z,255
2017-06-02T05:16:46.570Z,255
2017-06-02T05:17:27.440Z,255
2017-06-02T05:18:08.675Z,260
2017-06-02T05:18:49.130Z,260
2017-06-02T05:19:29.494Z,260
2017-06-02T05:20:09.927Z,260
2017-06-02T05:20:50.383Z,265
2017-06-02T05:21:30.785Z,265
2017-06-02T05:22:11.272Z,265
2017-06-02T05:22:51.708Z,270
2017-06-02T05:23:32.149Z,270
2017-06-02T05:24:12.590Z,275
2017-06-02T05:24:53.161Z,275
2017-06-02T05:25:33.586Z,280
2017-06-02T05:26:14.003Z,285
2017-06-02T05:26:54.423Z,285
2017-06-02T05:27:34.851Z,285
2017-06-02T05:28:15.323Z,290
2017-06-02T05:28:55.711Z,290
2017-06-02T05:29:36.634Z,295
2017-06-02T05:30:17.049Z,295
2017-06-02T05:30:57.546Z,300
2017-06-02T05:31:37.882Z,300
2017-06-02T05:32:18.416Z,305
2017-06-02T05:32:58.827Z,305
2017-06-02T05:33:39.256Z,310
2017-06-02T05:34:19.691Z,310
2017-06-02T05:35:00.137Z,315
2017-06-02T05:35:40.540Z,315
2017-06-02T05:36:20.915Z,315
2017-06-02T05:37:01.352Z,320
2017-06-02T05:37:41.779Z,320
2017-06-02T05:38:22.215Z,320
2017-06-02T05:39:02.613Z,325
2017-06-02T05:39:43.122Z,325
2017-06-02T05:40:24.146Z,330
2017-06-02T05:41:04.552Z,330
2017-06-02T05:41:44.968Z,330
2017-06-02T05:42:25.442Z,335
2017-06-02T05:43:05.887Z,335
2017-06-02T05:43:46.263Z,340
2017-06-02T05:44:26.682Z,340
2017-06-02T05:45:07.073Z,345
2017-06-02T05:45:47.569Z,345
2017-06-02T05:46:27.967Z,345
2017-06-02T05:47:08.371Z,350
2017-06-02T05:47:48.813Z,350
2017-06-02T05:48:30.066Z,350
2017-06-02T05:49:10.512Z,350
2017-06-02T05:49:51.700Z,355
2017-06-02T05:50:32.123Z,355
2017-06-02T05:51:12.556Z,360
2017-06-02T05:51:53.620Z,360
2017-06-02T05:52:34.040Z,365
2017-06-02T05:53:14.440Z,365
2017-06-02T05:53:54.845Z,370
2017-06-02T05:54:35.248Z,370
2017-06-02T05:55:15.707Z,370
2017-06-02T05:55:56.313Z,375
2017-06-02T05:56:36.717Z,380
2017-06-02T05:57:17.114Z,380
2017-06-02T05:57:57.593Z,380
2017-06-02T05:58:38.001Z,385
2017-06-02T05:59:18.401Z,385
2017-06-02T05:59:58.827Z,390
2017-06-02T06:00:39.294Z,390
2017-06-02T06:01:19.814Z,395
2017-06-02T06:02:00.169Z,395
2017-06-02T06:02:41.573Z,395
2017-06-02T06:03:21.979Z,400
2017-06-02T06:04:02.458Z,400
2017-06-02T06:04:42.867Z,405
2017-06-02T06:05:23.284Z,405
2017-06-02T06:06:03.730Z,410
2017-06-02T06:06:44.116Z,415
2017-06-02T06:07:24.515Z,420
2017-06-02T06:08:04.990Z,415
2017-06-02T06:08:46.195Z,420
2017-06-02T06:09:26.661Z,420
2017-06-02T06:10:07.049Z,425
2017-06-02T06:10:47.477Z,430
2017-06-02T06:11:27.887Z,435
2017-06-02T06:12:08.290Z,435
2017-06-02T06:12:48.682Z,445
2017-06-02T06:13:29.084Z,445
2017-06-02T06:14:09.545Z,445
2017-06-02T06:14:53.661Z,450
2017-06-02T06:15:34.045Z,450
2017-06-02T06:16:14.404Z,455
2017-06-02T06:16:54.878Z,455
2017-06-02T06:17:35.333Z,460
2017-06-02T06:18:17.158Z,465
2017-06-02T06:18:57.555Z,465
2017-06-02T06:19:37.941Z,475
2017-06-02T06:20:18.366Z,475
2017-06-02T06:20:58.813Z,475
2017-06-02T06:21:39.243Z,480
2017-06-02T06:22:19.667Z,485
2017-06-02T06:23:00.085Z,490
2017-06-02T06:23:40.497Z,495
2017-06-02T06:24:20.953Z,495
2017-06-02T06:25:01.327Z,500
2017-06-02T06:25:41.766Z,505
2017-06-02T06:26:22.734Z,505
2017-06-02T06:27:04.005Z,510
2017-06-02T06:27:44.499Z,510
2017-06-02T06:28:24.895Z,515
2017-06-02T06:29:05.344Z,515
2017-06-02T06:29:45.769Z,520
2017-06-02T06:30:26.215Z,525
2017-06-02T06:31:07.605Z,530
2017-06-02T06:31:48.055Z,535
2017-06-02T06:32:29.230Z,535
2017-06-02T06:33:09.645Z,540
2017-06-02T06:33:50.959Z,540
2017-06-02T06:34:31.383Z,545
2017-06-02T06:35:11.818Z,545
2017-06-02T06:35:52.241Z,550
2017-06-02T06:36:33.428Z,550
2017-06-02T06:37:13.894Z,555
2017-06-02T06:37:55.290Z,555
2017-06-02T06:38:35.742Z,560
2017-06-02T06:39:16.150Z,565
2017-06-02T06:39:56.575Z,565
2017-06-02T06:40:36.948Z,565
2017-06-02T06:41:17.353Z,575
2017-06-02T06:41:57.800Z,570
2017-06-02T06:42:39.145Z,575
2017-06-02T06:43:19.541Z,575
2017-06-02T06:44:00.544Z,580
2017-06-02T06:44:41.472Z,585
2017-06-02T06:45:21.891Z,590
2017-06-02T06:46:02.296Z,595
2017-06-02T06:46:42.724Z,595
2017-06-02T06:47:24.063Z,600
2017-06-02T06:48:06.469Z,605
2017-06-02T06:48:46.938Z,605
2017-06-02T06:49:28.196Z,610
2017-06-02T06:50:08.641Z,615
2017-06-02T06:50:49.033Z,620
2017-06-02T06:51:29.464Z,625
2017-06-02T06:52:10.678Z,630
2017-06-02T06:52:51.709Z,635
2017-06-02T06:53:32.422Z,640
2017-06-02T06:54:12.869Z,640
2017-06-02T06:54:53.733Z,645
2017-06-02T06:55:35.044Z,650
2017-06-02T06:56:15.463Z,650
2017-06-02T06:56:55.870Z,655
2017-06-02T06:57:37.466Z,660
2017-06-02T06:58:20.483Z,660
2017-06-02T06:59:02.445Z,665
2017-06-02T06:59:44.423Z,670
2017-06-02T07:00:25.528Z,680
2017-06-02T07:01:06.652Z,685
2017-06-02T07:01:49.039Z,690
2017-06-02T07:02:29.869Z,695
2017-06-02T07:03:11.137Z,705
2017-06-02T07:03:52.439Z,710
2017-06-02T07:04:33.441Z,720
2017-06-02T07:05:14.539Z,730
2017-06-02T07:05:55.041Z,740
2017-06-02T07:06:36.103Z,750
2017-06-02T07:07:16.458Z,760
2017-06-02T07:07:57.681Z,770
2017-06-02T07:08:38.555Z,775
2017-06-02T07:09:19.970Z,785
2017-06-02T07:10:02.290Z,795
2017-06-02T07:10:43.201Z,815
2017-06-02T07:11:25.527Z,820
2017-06-02T07:12:05.929Z,835
2017-06-02T07:12:51.134Z,850
2017-06-02T07:13:32.481Z,860
2017-06-02T07:14:12.967Z,875
2017-06-02T07:14:53.417Z,885
2017-06-02T07:15:33.830Z,895
2017-06-02T07:16:14.255Z,915
2017-06-02T07:16:54.711Z,930
2017-06-02T07:17:37.075Z,955
2017-06-02T07:18:19.984Z,1020
2017-06-02T07:19:01.170Z,1215
2017-06-02T07:19:42.462Z,1460
2017-06-02T07:20:22.932Z,1695
2017-06-02T07:21:03.326Z,1750
2017-06-02T07:21:44.322Z,1710
2017-06-02T07:22:24.742Z,1780
2017-06-02T07:23:05.799Z,1870
2017-06-02T07:23:46.253Z,1900
2017-06-02T07:24:26.656Z,1880
2017-06-02T07:25:08.590Z,1925
2017-06-02T07:25:48.999Z,1920
2017-06-02T07:26:29.458Z,1955
2017-06-02T07:27:09.889Z,2000
2017-06-02T07:27:50.296Z,2035
2017-06-02T07:28:31.519Z,2155
2017-06-02T07:29:13.489Z,2155
2017-06-02T07:29:54.657Z,2215
2017-06-02T07:30:35.040Z,2215
2017-06-02T07:31:16.283Z,2315
2017-06-02T07:31:56.714Z,2300
2017-06-02T07:32:37.139Z,2365
2017-06-02T07:33:17.570Z,2250
2017-06-02T07:33:57.960Z,2300
2017-06-02T07:34:40.135Z,2245
2017-06-02T07:35:21.154Z,2240
2017-06-02T07:36:01.648Z,2340
2017-06-02T07:38:34.712Z,2405
2017-06-02T07:39:16.235Z,2415
2017-06-02T07:39:58.554Z,2505
2017-06-02T07:40:39.841Z,2390
2017-06-02T07:41:21.355Z,2375
2017-06-02T07:42:01.719Z,2385
2017-06-02T07:42:42.173Z,2495
2017-06-02T07:43:22.586Z,2540
2017-06-02T07:44:02.990Z,2525
2017-06-02T07:44:43.446Z,2545
2017-06-02T07:45:24.358Z,2490
2017-06-02T07:46:04.829Z,2545
2017-06-02T07:46:45.245Z,2580
2017-06-02T07:47:25.658Z,2610
2017-06-02T07:48:06.083Z,2530
2017-06-02T07:48:46.520Z,2605
2017-06-02T07:49:26.922Z,2700
2017-06-02T07:50:08.269Z,2740
2017-06-02T07:50:48.714Z,2825
2017-06-02T07:51:29.146Z,2675
2017-06-02T07:52:09.567Z,2735
2017-06-02T07:52:49.993Z,2675
2017-06-02T07:53:31.197Z,2690
2017-06-02T07:54:12.188Z,2710
2017-06-02T07:54:52.606Z,2665
2017-06-02T07:55:33.064Z,2585
2017-06-02T07:56:13.450Z,2500
2017-06-02T07:58:27.292Z,3005
2017-06-02T07:59:07.708Z,2860
2017-06-02T07:59:48.156Z,2855
2017-06-02T08:00:28.589Z,2875
2017-06-02T08:01:09.866Z,2860
2017-06-02T08:01:50.299Z,2850
2017-06-02T08:02:31.588Z,2830
2017-06-02T08:03:12.010Z,2860
2017-06-02T08:03:52.444Z,2865
2017-06-02T08:04:32.909Z,2950
2017-06-02T08:05:13.386Z,3005
2017-06-02T08:05:54.937Z,2980
2017-06-02T08:06:36.624Z,2920
2017-06-02T08:07:17.016Z,2975
2017-06-02T08:09:57.377Z,2890
2017-06-02T08:10:37.800Z,2735
2017-06-02T08:12:58.539Z,3000
2017-06-02T08:13:39.010Z,3000
2017-06-02T08:14:19.396Z,3045
2017-06-02T08:14:59.816Z,3050
2017-06-02T08:15:40.264Z,3145
2017-06-02T08:16:20.710Z,3165
2017-06-02T08:17:01.169Z,3165
2017-06-02T08:17:42.131Z,3075
2017-06-02T08:18:22.530Z,2990
2017-06-02T08:19:02.989Z,2930
2017-06-02T08:19:44.119Z,2930
2017-06-02T08:20:25.203Z,3025
2017-06-02T08:21:05.608Z,2980
2017-06-02T08:21:47.543Z,2980
2017-06-02T08:22:28.875Z,2950
2017-06-02T08:23:09.339Z,3045
2017-06-02T08:23:50.524Z,3095
2017-06-02T08:24:31.780Z,3140
2017-06-02T08:25:14.037Z,3165
2017-06-02T08:25:55.287Z,3080
2017-06-02T08:28:10.901Z,3210
2017-06-02T08:28:51.392Z,3180
2017-06-02T08:29:32.385Z,3105
2017-06-02T08:30:13.399Z,3160
2017-06-02T08:30:56.460Z,3240
2017-06-02T08:31:38.492Z,3320
2017-06-02T08:32:18.916Z,3325
2017-06-02T08:32:59.329Z,3315
2017-06-02T08:33:39.750Z,3330
2017-06-02T08:34:20.830Z,3425
2017-06-02T08:35:01.898Z,3475
2017-06-02T08:35:42.324Z,3550
2017-06-02T08:36:23.400Z,3575
2017-06-02T09:07:22.431Z,3775
2017-06-02T09:08:03.325Z,3775
2017-06-02T09:08:43.873Z,3470
2017-06-02T09:09:25.664Z,3685
2017-06-02T09:10:07.601Z,3610
2017-06-02T09:10:48.749Z,3570
2017-06-02T09:11:34.776Z,3730
2017-06-02T09:12:16.562Z,3790
2017-06-02T09:12:56.947Z,3875
2017-06-02T09:15:24.795Z,3855
2017-06-02T09:16:05.823Z,3825
2017-06-02T09:18:37.035Z,4030
2017-06-02T09:19:19.937Z,4015
2017-06-02T09:20:00.400Z,4085
2017-06-02T09:20:40.796Z,4015
2017-06-02T09:21:21.236Z,3990
2017-06-02T09:22:02.159Z,4070
2017-06-02T09:22:45.128Z,4235
2017-06-02T09:23:26.123Z,4165
2017-06-02T09:24:06.644Z,4035
2017-06-02T09:24:50.450Z,3890
2017-06-02T09:25:30.879Z,4060
2017-06-02T09:26:11.316Z,4210
2017-06-02T09:26:54.933Z,3265
2017-06-02T09:27:36.069Z,3290
2017-06-02T09:28:17.479Z,3165
2017-06-02T09:29:00.617Z,2885
2017-06-02T09:29:43.465Z,2925
2017-06-02T09:30:23.898Z,2570
2017-06-02T09:34:10.532Z,4400
2017-06-02T09:34:52.278Z,4340
2017-06-02T09:35:35.353Z,4215
2017-06-02T09:36:17.692Z,4295
2017-06-02T09:36:58.119Z,4400
2017-06-02T09:37:38.571Z,4560
2017-06-02T09:38:22.741Z,4535
2017-06-02T09:39:03.133Z,4450
2017-06-02T09:39:45.224Z,4250
2017-06-02T09:40:25.616Z,4235
2017-06-02T09:41:06.044Z,4430
2017-06-02T09:41:46.421Z,4535
2017-06-02T09:42:27.488Z,4550
2017-06-02T09:43:07.867Z,4380
2017-06-02T09:43:48.325Z,4370
2017-06-02T09:44:30.200Z,4380
2017-06-02T09:45:18.210Z,4330
2017-06-02T09:46:00.760Z,4345
2017-06-02T09:46:42.116Z,4555
2017-06-02T09:47:22.489Z,4795
2017-06-02T09:51:16.888Z,4625
2017-06-02T09:51:57.320Z,4525
2017-06-02T09:59:00.796Z,4515
2017-06-02T09:59:41.245Z,4475
2017-06-02T10:00:22.491Z,4410
2017-06-02T10:01:02.880Z,4430
2017-06-02T10:08:37.994Z,2590
2017-06-02T10:09:20.186Z,2175
2017-06-02T10:10:00.606Z,1915
2017-06-02T10:10:40.992Z,3275
2017-06-02T10:11:22.099Z,2000
2017-06-02T10:12:03.450Z,1645
2017-06-02T10:16:16.794Z,1275
2017-06-02T10:16:57.223Z,1245
2017-06-02T10:17:37.672Z,1270
2017-06-02T10:18:18.908Z,1295
2017-06-02T10:19:00.137Z,1260
2017-06-02T10:23:54.939Z,965
2017-06-02T10:24:35.444Z,950
2017-06-02T10:25:16.717Z,920
2017-06-02T10:25:57.871Z,860
2017-06-02T10:26:38.246Z,825
2017-06-02T10:31:05.017Z,600
2017-06-02T10:31:45.419Z,570
2017-06-02T10:32:26.557Z,545
2017-06-02T10:33:07.008Z,530
2017-06-02T10:33:47.409Z,520
2017-06-02T10:34:29.152Z,515
2017-06-02T10:35:11.180Z,495
2017-06-02T10:37:40.688Z,445
2017-06-02T10:38:21.116Z,440
2017-06-02T10:39:02.415Z,445
2017-06-02T10:39:43.635Z,445
2017-06-02T10:40:24.780Z,450
2017-06-02T10:41:06.271Z,455
2017-06-02T10:41:46.763Z,460
2017-06-02T10:42:27.168Z,470
2017-06-02T10:43:07.544Z,480
2017-06-02T10:43:48.501Z,495
2017-06-02T10:44:28.954Z,515
2017-06-02T10:45:09.995Z,535
2017-06-02T10:45:50.401Z,555
2017-06-02T10:46:30.855Z,580
2017-06-02T10:48:58.969Z,675
2017-06-02T10:49:39.397Z,700
2017-06-02T10:50:19.809Z,720
2017-06-02T10:51:00.276Z,740
2017-06-02T10:51:41.360Z,770
2017-06-02T10:52:21.737Z,790
2017-06-02T10:53:02.236Z,790
2017-06-02T10:53:43.500Z,785
2017-06-02T10:54:24.736Z,775
2017-06-02T10:55:05.842Z,765
2017-06-02T10:55:46.847Z,760
2017-06-02T10:56:27.279Z,755
2017-06-02T10:57:08.387Z,750
2017-06-02T10:57:48.872Z,745
2017-06-02T10:58:29.317Z,750